Terminal Aerodrome Forecast
Issued by NWS Quad Cities IA IL

Home | Current Version | Previous Version | Text Only | Print | Product List | Glossary On
Versions: 1 2 3 4 5 6 7 8 9 10 11 12 13 14 15 16 17 18 19 20 21 22 23 24 25 26 27 28
000
FTUS43 KDVN 290635 AAA
TAFMLI
TAF AMD
KMLI 290635Z 2907/3006 00000KT 1SM BR SKC
      TEMPO 2908/2912 1/2SM FG BKN008
     FM291400 30006KT 6SM BR BKN030
     FM291700 30008KT P6SM BKN050 PROB30 2921/2924 -TSRA BKN040CB=

USA.gov is the U.S. government's official web portal to all federal, state and local government web resources and services.